sensor_id;sensor_type;location;lat;lon;timestamp;temperature;humidity
29713;DHT22;16623;53.632;10.016;2022-07-09T00:00:19;16.10;99.90
29713;DHT22;16623;53.632;10.016;2022-07-09T00:02:44;16.20;99.90
29713;DHT22;16623;53.632;10.016;2022-07-09T00:05:10;16.00;99.90
29713;DHT22;16623;53.632;10.016;2022-07-09T00:07:37;16.00;99.90
29713;DHT22;16623;53.632;10.016;2022-07-09T00:10:03;16.00;99.90
29713;DHT22;16623;53.632;10.016;2022-07-09T00:12:28;16.00;99.90
29713;DHT22;16623;53.632;10.016;2022-07-09T00:14:54;16.00;99.90
29713;DHT22;16623;53.632;10.016;2022-07-09T00:17:19;16.00;99.90
29713;DHT22;16623;53.632;10.016;2022-07-09T00:19:45;16.00;99.90
29713;DHT22;16623;53.632;10.016;2022-07-09T00:22:10;15.90;99.90
29713;DHT22;16623;53.632;10.016;2022-07-09T00:24:35;15.90;99.90
29713;DHT22;16623;53.632;10.016;2022-07-09T00:27:01;15.90;99.90
29713;DHT22;16623;53.632;10.016;2022-07-09T00:29:26;16.00;99.90
29713;DHT22;16623;53.632;10.016;2022-07-09T00:31:52;15.80;99.90
29713;DHT22;16623;53.632;10.016;2022-07-09T00:34:17;15.80;99.90
29713;DHT22;16623;53.632;10.016;2022-07-09T00:36:43;15.80;99.90
29713;DHT22;16623;53.632;10.016;2022-07-09T00:39:08;15.80;99.90
29713;DHT22;16623;53.632;10.016;2022-07-09T00:41:34;15.80;99.90
29713;DHT22;16623;53.632;10.016;2022-07-09T00:44:00;15.70;99.90
29713;DHT22;16623;53.632;10.016;2022-07-09T00:46:25;15.70;99.90
29713;DHT22;16623;53.632;10.016;2022-07-09T00:48:51;15.80;99.90
29713;DHT22;16623;53.632;10.016;2022-07-09T00:51:16;15.80;99.90
29713;DHT22;16623;53.632;10.016;2022-07-09T00:53:42;15.70;99.90
29713;DHT22;16623;53.632;10.016;2022-07-09T00:56:08;15.70;99.90
29713;DHT22;16623;53.632;10.016;2022-07-09T00:58:34;15.80;99.90
29713;DHT22;16623;53.632;10.016;2022-07-09T01:01:01;15.80;99.90
29713;DHT22;16623;53.632;10.016;2022-07-09T01:03:27;15.80;99.90
29713;DHT22;16623;53.632;10.016;2022-07-09T01:05:52;15.80;99.90
29713;DHT22;16623;53.632;10.016;2022-07-09T01:08:17;15.80;99.90
29713;DHT22;16623;53.632;10.016;2022-07-09T01:10:43;15.80;99.90
29713;DHT22;16623;53.632;10.016;2022-07-09T01:13:08;15.80;99.90
29713;DHT22;16623;53.632;10.016;2022-07-09T01:15:34;15.90;99.90
29713;DHT22;16623;53.632;10.016;2022-07-09T01:18:00;15.80;99.90
29713;DHT22;16623;53.632;10.016;2022-07-09T01:20:25;15.90;99.90
29713;DHT22;16623;53.632;10.016;2022-07-09T01:22:51;15.90;99.90
29713;DHT22;16623;53.632;10.016;2022-07-09T01:25:16;15.90;99.90
29713;DHT22;16623;53.632;10.016;2022-07-09T01:27:42;15.80;99.90
29713;DHT22;16623;53.632;10.016;2022-07-09T01:30:08;15.90;99.90
29713;DHT22;16623;53.632;10.016;2022-07-09T01:32:33;15.90;99.90
29713;DHT22;16623;53.632;10.016;2022-07-09T01:34:59;15.90;99.90
29713;DHT22;16623;53.632;10.016;2022-07-09T01:37:24;15.90;99.90
29713;DHT22;16623;53.632;10.016;2022-07-09T01:39:50;15.80;99.90
29713;DHT22;16623;53.632;10.016;2022-07-09T01:42:16;15.70;99.90
29713;DHT22;16623;53.632;10.016;2022-07-09T01:44:41;15.70;99.90
29713;DHT22;16623;53.632;10.016;2022-07-09T01:47:08;15.70;99.90
29713;DHT22;16623;53.632;10.016;2022-07-09T01:49:34;15.70;99.90
29713;DHT22;16623;53.632;10.016;2022-07-09T01:51:59;15.70;99.90
29713;DHT22;16623;53.632;10.016;2022-07-09T01:54:24;15.70;99.90
29713;DHT22;16623;53.632;10.016;2022-07-09T01:56:50;15.70;99.90
29713;DHT22;16623;53.632;10.016;2022-07-09T01:59:15;15.70;99.90
29713;DHT22;16623;53.632;10.016;2022-07-09T02:01:41;15.90;99.90
29713;DHT22;16623;53.632;10.016;2022-07-09T02:04:06;15.70;99.90
29713;DHT22;16623;53.632;10.016;2022-07-09T02:06:32;15.70;99.90
29713;DHT22;16623;53.632;10.016;2022-07-09T02:08:57;15.70;99.90
29713;DHT22;16623;53.632;10.016;2022-07-09T02:11:23;15.70;99.90
29713;DHT22;16623;53.632;10.016;2022-07-09T02:13:48;15.60;99.90
29713;DHT22;16623;53.632;10.016;2022-07-09T02:16:13;15.70;99.90
29713;DHT22;16623;53.632;10.016;2022-07-09T02:18:39;15.70;99.90
29713;DHT22;16623;53.632;10.016;2022-07-09T02:21:05;15.70;99.90
29713;DHT22;16623;53.632;10.016;2022-07-09T02:23:31;15.70;99.90
29713;DHT22;16623;53.632;10.016;2022-07-09T02:25:56;15.70;99.90
29713;DHT22;16623;53.632;10.016;2022-07-09T02:28:21;15.60;99.90
29713;DHT22;16623;53.632;10.016;2022-07-09T02:30:47;15.70;99.90
29713;DHT22;16623;53.632;10.016;2022-07-09T02:33:12;15.60;99.90
29713;DHT22;16623;53.632;10.016;2022-07-09T02:35:38;15.70;99.90
29713;DHT22;16623;53.632;10.016;2022-07-09T02:38:03;15.60;99.90
29713;DHT22;16623;53.632;10.016;2022-07-09T02:40:28;15.70;99.90
29713;DHT22;16623;53.632;10.016;2022-07-09T02:42:54;15.70;99.90
29713;DHT22;16623;53.632;10.016;2022-07-09T02:45:21;15.70;99.90
29713;DHT22;16623;53.632;10.016;2022-07-09T02:47:46;15.70;99.90
29713;DHT22;16623;53.632;10.016;2022-07-09T02:50:11;15.70;99.90
29713;DHT22;16623;53.632;10.016;2022-07-09T02:52:37;15.70;99.90
29713;DHT22;16623;53.632;10.016;2022-07-09T02:55:02;15.70;99.90
29713;DHT22;16623;53.632;10.016;2022-07-09T02:57:28;15.70;99.90
29713;DHT22;16623;53.632;10.016;2022-07-09T02:59:53;15.80;99.90
29713;DHT22;16623;53.632;10.016;2022-07-09T03:02:19;15.70;99.90
29713;DHT22;16623;53.632;10.016;2022-07-09T03:04:44;15.70;99.90
29713;DHT22;16623;53.632;10.016;2022-07-09T03:07:09;15.60;99.90
29713;DHT22;16623;53.632;10.016;2022-07-09T03:09:35;15.60;99.90
29713;DHT22;16623;53.632;10.016;2022-07-09T03:12:01;15.70;99.90
29713;DHT22;16623;53.632;10.016;2022-07-09T03:14:26;15.80;99.90
29713;DHT22;16623;53.632;10.016;2022-07-09T03:16:52;15.80;99.90
29713;DHT22;16623;53.632;10.016;2022-07-09T03:19:17;15.80;99.90
29713;DHT22;16623;53.632;10.016;2022-07-09T03:21:44;15.80;99.90
29713;DHT22;16623;53.632;10.016;2022-07-09T03:24:09;15.80;99.90
29713;DHT22;16623;53.632;10.016;2022-07-09T03:26:35;15.80;99.90
29713;DHT22;16623;53.632;10.016;2022-07-09T03:29:00;15.90;99.90
29713;DHT22;16623;53.632;10.016;2022-07-09T03:31:26;15.70;99.90
29713;DHT22;16623;53.632;10.016;2022-07-09T03:33:51;15.80;99.90
29713;DHT22;16623;53.632;10.016;2022-07-09T03:36:18;15.70;99.90
29713;DHT22;16623;53.632;10.016;2022-07-09T03:38:44;15.80;99.90
29713;DHT22;16623;53.632;10.016;2022-07-09T03:41:09;15.70;99.90
29713;DHT22;16623;53.632;10.016;2022-07-09T03:43:35;15.80;99.90
29713;DHT22;16623;53.632;10.016;2022-07-09T03:46:00;15.70;99.90
29713;DHT22;16623;53.632;10.016;2022-07-09T03:48:25;15.80;99.90
29713;DHT22;16623;53.632;10.016;2022-07-09T03:50:51;15.80;99.90
29713;DHT22;16623;53.632;10.016;2022-07-09T03:53:17;15.70;99.90
29713;DHT22;16623;53.632;10.016;2022-07-09T03:55:42;15.70;99.90
29713;DHT22;16623;53.632;10.016;2022-07-09T03:58:08;15.70;99.90
29713;DHT22;16623;53.632;10.016;2022-07-09T04:00:33;15.70;99.90
29713;DHT22;16623;53.632;10.016;2022-07-09T04:02:58;15.70;99.90
29713;DHT22;16623;53.632;10.016;2022-07-09T04:05:24;15.70;99.90
29713;DHT22;16623;53.632;10.016;2022-07-09T04:07:49;15.70;99.90
29713;DHT22;16623;53.632;10.016;2022-07-09T04:10:15;15.70;99.90
29713;DHT22;16623;53.632;10.016;2022-07-09T04:12:40;15.70;99.90
29713;DHT22;16623;53.632;10.016;2022-07-09T04:15:06;15.70;99.90
29713;DHT22;16623;53.632;10.016;2022-07-09T04:17:32;15.80;99.90
29713;DHT22;16623;53.632;10.016;2022-07-09T04:19:59;15.80;99.90
29713;DHT22;16623;53.632;10.016;2022-07-09T04:22:24;15.90;99.90
29713;DHT22;16623;53.632;10.016;2022-07-09T04:24:51;15.90;99.90
29713;DHT22;16623;53.632;10.016;2022-07-09T04:27:16;14.60;99.90
29713;DHT22;16623;53.632;10.016;2022-07-09T04:29:42;15.90;99.90
29713;DHT22;16623;53.632;10.016;2022-07-09T04:32:08;15.90;99.90
29713;DHT22;16623;53.632;10.016;2022-07-09T04:34:33;15.90;99.90
29713;DHT22;16623;53.632;10.016;2022-07-09T04:36:59;15.90;99.90
29713;DHT22;16623;53.632;10.016;2022-07-09T04:39:24;15.90;99.90
29713;DHT22;16623;53.632;10.016;2022-07-09T04:41:50;15.90;99.90
29713;DHT22;16623;53.632;10.016;2022-07-09T04:44:16;15.90;99.90
29713;DHT22;16623;53.632;10.016;2022-07-09T04:46:41;15.80;99.90
29713;DHT22;16623;53.632;10.016;2022-07-09T04:49:08;15.90;99.90
29713;DHT22;16623;53.632;10.016;2022-07-09T04:51:33;16.00;99.90
29713;DHT22;16623;53.632;10.016;2022-07-09T04:53:59;15.90;99.90
29713;DHT22;16623;53.632;10.016;2022-07-09T04:56:24;16.00;99.90
29713;DHT22;16623;53.632;10.016;2022-07-09T04:58:50;16.00;99.90
29713;DHT22;16623;53.632;10.016;2022-07-09T05:01:20;15.90;99.90
29713;DHT22;16623;53.632;10.016;2022-07-09T05:03:46;16.00;99.90
29713;DHT22;16623;53.632;10.016;2022-07-09T05:06:18;15.90;99.90
29713;DHT22;16623;53.632;10.016;2022-07-09T05:08:44;16.00;99.90
29713;DHT22;16623;53.632;10.016;2022-07-09T05:11:09;16.00;99.90
29713;DHT22;16623;53.632;10.016;2022-07-09T05:13:36;16.10;99.90
29713;DHT22;16623;53.632;10.016;2022-07-09T05:16:01;16.10;99.90
29713;DHT22;16623;53.632;10.016;2022-07-09T05:18:27;16.10;99.90
29713;DHT22;16623;53.632;10.016;2022-07-09T05:20:54;16.10;99.90
29713;DHT22;16623;53.632;10.016;2022-07-09T05:23:20;16.10;99.90
29713;DHT22;16623;53.632;10.016;2022-07-09T05:25:45;16.10;99.90
29713;DHT22;16623;53.632;10.016;2022-07-09T05:28:11;16.10;99.90
29713;DHT22;16623;53.632;10.016;2022-07-09T05:30:36;16.20;99.90
29713;DHT22;16623;53.632;10.016;2022-07-09T05:33:05;16.20;99.90
29713;DHT22;16623;53.632;10.016;2022-07-09T05:35:31;16.30;99.90
29713;DHT22;16623;53.632;10.016;2022-07-09T05:37:56;16.30;99.90
29713;DHT22;16623;53.632;10.016;2022-07-09T05:40:21;16.30;99.90
29713;DHT22;16623;53.632;10.016;2022-07-09T05:42:47;16.30;99.90
29713;DHT22;16623;53.632;10.016;2022-07-09T05:45:16;16.40;99.90
29713;DHT22;16623;53.632;10.016;2022-07-09T05:47:41;16.40;99.90
29713;DHT22;16623;53.632;10.016;2022-07-09T05:50:07;16.40;99.90
29713;DHT22;16623;53.632;10.016;2022-07-09T05:52:33;16.50;99.90
29713;DHT22;16623;53.632;10.016;2022-07-09T05:54:58;16.50;99.90
29713;DHT22;16623;53.632;10.016;2022-07-09T05:57:24;16.50;99.90
29713;DHT22;16623;53.632;10.016;2022-07-09T05:59:49;16.50;99.90
29713;DHT22;16623;53.632;10.016;2022-07-09T06:02:15;16.50;99.90
29713;DHT22;16623;53.632;10.016;2022-07-09T06:04:40;16.50;99.90
29713;DHT22;16623;53.632;10.016;2022-07-09T06:07:06;16.50;99.90
29713;DHT22;16623;53.632;10.016;2022-07-09T06:09:41;16.50;99.90
29713;DHT22;16623;53.632;10.016;2022-07-09T06:12:06;16.50;99.90
29713;DHT22;16623;53.632;10.016;2022-07-09T06:14:34;16.50;99.90
29713;DHT22;16623;53.632;10.016;2022-07-09T06:16:59;16.50;99.90
29713;DHT22;16623;53.632;10.016;2022-07-09T06:19:31;16.40;99.90
29713;DHT22;16623;53.632;10.016;2022-07-09T06:21:57;16.30;99.90
29713;DHT22;16623;53.632;10.016;2022-07-09T06:24:22;16.40;99.90
29713;DHT22;16623;53.632;10.016;2022-07-09T06:26:49;16.40;99.90
29713;DHT22;16623;53.632;10.016;2022-07-09T06:29:15;16.50;99.90
29713;DHT22;16623;53.632;10.016;2022-07-09T06:31:41;16.60;99.90
29713;DHT22;16623;53.632;10.016;2022-07-09T06:34:07;16.60;99.90
29713;DHT22;16623;53.632;10.016;2022-07-09T06:36:39;16.70;99.90
29713;DHT22;16623;53.632;10.016;2022-07-09T06:39:05;16.80;99.90
29713;DHT22;16623;53.632;10.016;2022-07-09T06:41:49;16.80;99.90
29713;DHT22;16623;53.632;10.016;2022-07-09T06:44:24;16.80;99.90
29713;DHT22;16623;53.632;10.016;2022-07-09T06:46:49;16.90;99.90
29713;DHT22;16623;53.632;10.016;2022-07-09T06:49:14;16.90;99.90
29713;DHT22;16623;53.632;10.016;2022-07-09T06:51:40;16.90;99.90
29713;DHT22;16623;53.632;10.016;2022-07-09T06:54:05;16.90;99.90
29713;DHT22;16623;53.632;10.016;2022-07-09T06:56:31;17.00;99.90
29713;DHT22;16623;53.632;10.016;2022-07-09T06:58:56;17.10;99.90
29713;DHT22;16623;53.632;10.016;2022-07-09T07:01:21;17.10;99.90
29713;DHT22;16623;53.632;10.016;2022-07-09T07:03:47;17.20;99.90
29713;DHT22;16623;53.632;10.016;2022-07-09T07:06:13;17.30;99.90
29713;DHT22;16623;53.632;10.016;2022-07-09T07:08:38;17.30;99.90
29713;DHT22;16623;53.632;10.016;2022-07-09T07:11:04;17.40;99.90
29713;DHT22;16623;53.632;10.016;2022-07-09T07:13:29;17.50;99.90
29713;DHT22;16623;53.632;10.016;2022-07-09T07:15:54;17.50;99.90
29713;DHT22;16623;53.632;10.016;2022-07-09T07:18:20;17.50;99.90
29713;DHT22;16623;53.632;10.016;2022-07-09T07:20:45;17.50;99.90
29713;DHT22;16623;53.632;10.016;2022-07-09T07:23:11;17.50;99.90
29713;DHT22;16623;53.632;10.016;2022-07-09T07:25:37;17.50;99.90
29713;DHT22;16623;53.632;10.016;2022-07-09T07:28:02;17.60;99.90
29713;DHT22;16623;53.632;10.016;2022-07-09T07:30:29;17.60;99.90
29713;DHT22;16623;53.632;10.016;2022-07-09T07:32:58;17.70;99.90
29713;DHT22;16623;53.632;10.016;2022-07-09T07:35:24;17.80;99.90
29713;DHT22;16623;53.632;10.016;2022-07-09T07:37:49;17.90;99.90
29713;DHT22;16623;53.632;10.016;2022-07-09T07:40:15;18.10;99.90
29713;DHT22;16623;53.632;10.016;2022-07-09T07:42:40;17.90;99.90
29713;DHT22;16623;53.632;10.016;2022-07-09T07:45:06;17.90;99.90
29713;DHT22;16623;53.632;10.016;2022-07-09T07:47:31;17.90;99.90
29713;DHT22;16623;53.632;10.016;2022-07-09T07:49:57;18.00;99.90
29713;DHT22;16623;53.632;10.016;2022-07-09T07:52:22;18.10;99.90
29713;DHT22;16623;53.632;10.016;2022-07-09T07:54:47;18.30;99.90
29713;DHT22;16623;53.632;10.016;2022-07-09T07:57:13;18.60;99.90
29713;DHT22;16623;53.632;10.016;2022-07-09T07:59:38;18.70;99.90
29713;DHT22;16623;53.632;10.016;2022-07-09T08:02:04;18.70;99.90
29713;DHT22;16623;53.632;10.016;2022-07-09T08:04:29;18.70;99.90
29713;DHT22;16623;53.632;10.016;2022-07-09T08:06:55;18.70;99.90
29713;DHT22;16623;53.632;10.016;2022-07-09T08:09:20;18.50;99.90
29713;DHT22;16623;53.632;10.016;2022-07-09T08:11:46;18.50;99.90
29713;DHT22;16623;53.632;10.016;2022-07-09T08:14:11;18.40;99.90
29713;DHT22;16623;53.632;10.016;2022-07-09T08:16:37;18.40;99.90
29713;DHT22;16623;53.632;10.016;2022-07-09T08:19:03;18.40;99.90
29713;DHT22;16623;53.632;10.016;2022-07-09T08:21:30;18.40;99.90
29713;DHT22;16623;53.632;10.016;2022-07-09T08:23:55;18.40;99.90
29713;DHT22;16623;53.632;10.016;2022-07-09T08:26:21;18.40;99.90
29713;DHT22;16623;53.632;10.016;2022-07-09T08:28:47;18.40;99.90
29713;DHT22;16623;53.632;10.016;2022-07-09T08:31:13;18.50;99.90
29713;DHT22;16623;53.632;10.016;2022-07-09T08:33:41;18.50;99.90
29713;DHT22;16623;53.632;10.016;2022-07-09T08:36:06;18.40;99.90
29713;DHT22;16623;53.632;10.016;2022-07-09T08:38:32;18.50;99.90
29713;DHT22;16623;53.632;10.016;2022-07-09T08:40:57;18.60;99.90
29713;DHT22;16623;53.632;10.016;2022-07-09T08:43:24;18.60;99.90
29713;DHT22;16623;53.632;10.016;2022-07-09T08:45:55;18.60;99.90
29713;DHT22;16623;53.632;10.016;2022-07-09T08:48:21;18.60;99.90
29713;DHT22;16623;53.632;10.016;2022-07-09T08:50:48;18.60;99.90
29713;DHT22;16623;53.632;10.016;2022-07-09T08:53:15;18.70;99.90
29713;DHT22;16623;53.632;10.016;2022-07-09T08:55:41;18.80;99.90
29713;DHT22;16623;53.632;10.016;2022-07-09T08:58:07;19.10;99.90
29713;DHT22;16623;53.632;10.016;2022-07-09T09:00:33;19.20;99.90
29713;DHT22;16623;53.632;10.016;2022-07-09T09:02:58;19.30;99.90
29713;DHT22;16623;53.632;10.016;2022-07-09T09:05:24;19.40;99.90
29713;DHT22;16623;53.632;10.016;2022-07-09T09:07:51;19.40;99.90
29713;DHT22;16623;53.632;10.016;2022-07-09T09:10:20;19.60;99.90
29713;DHT22;16623;53.632;10.016;2022-07-09T09:12:47;19.60;99.90
29713;DHT22;16623;53.632;10.016;2022-07-09T09:15:16;19.60;99.90
29713;DHT22;16623;53.632;10.016;2022-07-09T09:17:42;19.60;99.90
29713;DHT22;16623;53.632;10.016;2022-07-09T09:20:11;19.70;99.90
29713;DHT22;16623;53.632;10.016;2022-07-09T09:22:43;19.90;99.90
29713;DHT22;16623;53.632;10.016;2022-07-09T09:25:14;20.00;99.90
29713;DHT22;16623;53.632;10.016;2022-07-09T09:27:40;20.10;99.90
29713;DHT22;16623;53.632;10.016;2022-07-09T09:30:07;20.10;99.90
29713;DHT22;16623;53.632;10.016;2022-07-09T09:32:34;20.10;99.90
29713;DHT22;16623;53.632;10.016;2022-07-09T09:35:02;20.20;99.90
29713;DHT22;16623;53.632;10.016;2022-07-09T09:37:28;20.30;99.90
29713;DHT22;16623;53.632;10.016;2022-07-09T09:39:54;20.50;99.90
29713;DHT22;16623;53.632;10.016;2022-07-09T09:42:20;20.50;99.90
29713;DHT22;16623;53.632;10.016;2022-07-09T09:44:48;20.70;99.90
29713;DHT22;16623;53.632;10.016;2022-07-09T09:47:15;20.80;99.90
29713;DHT22;16623;53.632;10.016;2022-07-09T09:49:42;21.00;99.90
29713;DHT22;16623;53.632;10.016;2022-07-09T09:52:08;21.10;99.90
29713;DHT22;16623;53.632;10.016;2022-07-09T09:54:34;21.20;99.90
29713;DHT22;16623;53.632;10.016;2022-07-09T09:57:02;21.20;99.90
29713;DHT22;16623;53.632;10.016;2022-07-09T09:59:29;21.30;99.90
29713;DHT22;16623;53.632;10.016;2022-07-09T10:01:55;21.20;99.90
29713;DHT22;16623;53.632;10.016;2022-07-09T10:04:20;21.40;99.90
29713;DHT22;16623;53.632;10.016;2022-07-09T10:06:46;21.60;99.90
29713;DHT22;16623;53.632;10.016;2022-07-09T10:09:12;21.70;99.90
29713;DHT22;16623;53.632;10.016;2022-07-09T10:11:42;21.50;99.90
29713;DHT22;16623;53.632;10.016;2022-07-09T10:14:14;21.40;99.90
29713;DHT22;16623;53.632;10.016;2022-07-09T10:16:40;21.30;99.90
29713;DHT22;16623;53.632;10.016;2022-07-09T10:19:06;21.00;99.90
29713;DHT22;16623;53.632;10.016;2022-07-09T10:21:32;19.70;99.90
29713;DHT22;16623;53.632;10.016;2022-07-09T10:23:58;20.60;99.90
29713;DHT22;16623;53.632;10.016;2022-07-09T10:26:34;20.40;99.90
29713;DHT22;16623;53.632;10.016;2022-07-09T10:28:59;20.40;99.90
29713;DHT22;16623;53.632;10.016;2022-07-09T10:31:25;20.30;99.90
29713;DHT22;16623;53.632;10.016;2022-07-09T10:33:52;20.40;99.90
29713;DHT22;16623;53.632;10.016;2022-07-09T10:36:27;20.60;99.90
29713;DHT22;16623;53.632;10.016;2022-07-09T10:38:53;20.80;99.90
29713;DHT22;16623;53.632;10.016;2022-07-09T10:41:22;20.90;99.90
29713;DHT22;16623;53.632;10.016;2022-07-09T10:43:52;20.90;99.90
29713;DHT22;16623;53.632;10.016;2022-07-09T10:46:18;20.90;99.90
29713;DHT22;16623;53.632;10.016;2022-07-09T10:48:44;20.80;99.90
29713;DHT22;16623;53.632;10.016;2022-07-09T10:51:19;20.80;99.90
29713;DHT22;16623;53.632;10.016;2022-07-09T10:53:45;20.70;99.90
29713;DHT22;16623;53.632;10.016;2022-07-09T10:56:11;20.60;99.90
29713;DHT22;16623;53.632;10.016;2022-07-09T10:58:41;20.60;99.90
29713;DHT22;16623;53.632;10.016;2022-07-09T11:01:10;20.60;99.90
29713;DHT22;16623;53.632;10.016;2022-07-09T11:03:46;20.70;99.90
29713;DHT22;16623;53.632;10.016;2022-07-09T11:06:12;21.00;99.90
29713;DHT22;16623;53.632;10.016;2022-07-09T11:08:37;21.30;99.90
29713;DHT22;16623;53.632;10.016;2022-07-09T11:11:03;21.40;99.90
29713;DHT22;16623;53.632;10.016;2022-07-09T11:13:28;21.60;99.90
29713;DHT22;16623;53.632;10.016;2022-07-09T11:15:57;21.80;99.90
29713;DHT22;16623;53.632;10.016;2022-07-09T11:18:25;21.80;99.90
29713;DHT22;16623;53.632;10.016;2022-07-09T11:20:51;21.90;99.90
29713;DHT22;16623;53.632;10.016;2022-07-09T11:23:16;22.10;99.90
29713;DHT22;16623;53.632;10.016;2022-07-09T11:25:42;22.10;99.90
29713;DHT22;16623;53.632;10.016;2022-07-09T11:28:08;22.00;99.90
29713;DHT22;16623;53.632;10.016;2022-07-09T11:30:33;21.70;99.90
29713;DHT22;16623;53.632;10.016;2022-07-09T11:32:59;21.40;99.90
29713;DHT22;16623;53.632;10.016;2022-07-09T11:35:33;21.20;99.90
29713;DHT22;16623;53.632;10.016;2022-07-09T11:38:00;20.90;99.90
29713;DHT22;16623;53.632;10.016;2022-07-09T11:40:25;20.80;99.90
29713;DHT22;16623;53.632;10.016;2022-07-09T11:42:51;20.90;99.90
29713;DHT22;16623;53.632;10.016;2022-07-09T11:45:21;21.10;99.90
29713;DHT22;16623;53.632;10.016;2022-07-09T11:47:46;21.30;99.90
29713;DHT22;16623;53.632;10.016;2022-07-09T11:50:13;21.50;99.90
29713;DHT22;16623;53.632;10.016;2022-07-09T11:52:43;21.50;99.90
29713;DHT22;16623;53.632;10.016;2022-07-09T11:55:10;21.60;99.90
29713;DHT22;16623;53.632;10.016;2022-07-09T11:57:36;21.70;99.90
29713;DHT22;16623;53.632;10.016;2022-07-09T12:00:03;21.80;99.90
29713;DHT22;16623;53.632;10.016;2022-07-09T12:02:30;21.90;99.90
29713;DHT22;16623;53.632;10.016;2022-07-09T12:04:56;21.70;99.90
29713;DHT22;16623;53.632;10.016;2022-07-09T12:07:22;22.00;99.90
29713;DHT22;16623;53.632;10.016;2022-07-09T12:09:56;21.50;99.90
29713;DHT22;16623;53.632;10.016;2022-07-09T12:12:22;21.60;99.90
29713;DHT22;16623;53.632;10.016;2022-07-09T12:14:48;21.50;99.90
29713;DHT22;16623;53.632;10.016;2022-07-09T12:17:20;21.30;99.90
29713;DHT22;16623;53.632;10.016;2022-07-09T12:19:47;21.40;99.90
29713;DHT22;16623;53.632;10.016;2022-07-09T12:22:13;21.50;99.90
29713;DHT22;16623;53.632;10.016;2022-07-09T12:24:39;21.50;99.90
29713;DHT22;16623;53.632;10.016;2022-07-09T12:27:04;21.40;99.90
29713;DHT22;16623;53.632;10.016;2022-07-09T12:29:30;21.50;99.90
29713;DHT22;16623;53.632;10.016;2022-07-09T12:31:55;21.60;99.90
29713;DHT22;16623;53.632;10.016;2022-07-09T12:34:21;21.70;99.90
29713;DHT22;16623;53.632;10.016;2022-07-09T12:36:46;21.70;99.90
29713;DHT22;16623;53.632;10.016;2022-07-09T12:39:12;21.90;99.90
29713;DHT22;16623;53.632;10.016;2022-07-09T12:41:37;22.10;99.90
29713;DHT22;16623;53.632;10.016;2022-07-09T12:44:03;22.20;99.90
29713;DHT22;16623;53.632;10.016;2022-07-09T12:46:28;22.20;99.90
29713;DHT22;16623;53.632;10.016;2022-07-09T12:48:54;22.20;99.90
29713;DHT22;16623;53.632;10.016;2022-07-09T12:51:19;22.30;99.90
29713;DHT22;16623;53.632;10.016;2022-07-09T12:53:44;22.30;99.90
29713;DHT22;16623;53.632;10.016;2022-07-09T12:56:10;22.30;99.90
29713;DHT22;16623;53.632;10.016;2022-07-09T12:58:36;22.20;99.90
29713;DHT22;16623;53.632;10.016;2022-07-09T13:01:01;22.10;99.90
29713;DHT22;16623;53.632;10.016;2022-07-09T13:03:27;22.00;99.90
29713;DHT22;16623;53.632;10.016;2022-07-09T13:05:52;21.90;99.90
29713;DHT22;16623;53.632;10.016;2022-07-09T13:08:18;21.90;99.90
29713;DHT22;16623;53.632;10.016;2022-07-09T13:10:43;21.70;99.90
29713;DHT22;16623;53.632;10.016;2022-07-09T13:13:09;21.50;99.90
29713;DHT22;16623;53.632;10.016;2022-07-09T13:15:34;21.50;99.90
29713;DHT22;16623;53.632;10.016;2022-07-09T13:18:00;21.70;99.90
29713;DHT22;16623;53.632;10.016;2022-07-09T13:20:25;21.80;99.90
29713;DHT22;16623;53.632;10.016;2022-07-09T13:22:51;21.90;99.90
29713;DHT22;16623;53.632;10.016;2022-07-09T13:25:16;22.00;99.90
29713;DHT22;16623;53.632;10.016;2022-07-09T13:27:42;22.00;99.90
29713;DHT22;16623;53.632;10.016;2022-07-09T13:30:07;21.90;99.90
29713;DHT22;16623;53.632;10.016;2022-07-09T13:32:33;22.00;99.90
29713;DHT22;16623;53.632;10.016;2022-07-09T13:34:58;22.20;99.90
29713;DHT22;16623;53.632;10.016;2022-07-09T13:37:24;22.30;99.90
29713;DHT22;16623;53.632;10.016;2022-07-09T13:39:49;22.10;99.90
29713;DHT22;16623;53.632;10.016;2022-07-09T13:42:15;22.10;99.90
29713;DHT22;16623;53.632;10.016;2022-07-09T13:44:40;22.00;99.90
29713;DHT22;16623;53.632;10.016;2022-07-09T13:47:06;21.40;99.90
29713;DHT22;16623;53.632;10.016;2022-07-09T13:49:31;20.80;99.90
29713;DHT22;16623;53.632;10.016;2022-07-09T13:51:57;20.40;99.90
29713;DHT22;16623;53.632;10.016;2022-07-09T13:54:22;20.40;99.90
29713;DHT22;16623;53.632;10.016;2022-07-09T13:56:48;20.30;99.90
29713;DHT22;16623;53.632;10.016;2022-07-09T13:59:14;20.60;99.90
29713;DHT22;16623;53.632;10.016;2022-07-09T14:01:39;20.10;99.90
29713;DHT22;16623;53.632;10.016;2022-07-09T14:04:07;20.10;99.90
29713;DHT22;16623;53.632;10.016;2022-07-09T14:06:33;20.00;99.90
29713;DHT22;16623;53.632;10.016;2022-07-09T14:08:58;20.10;99.90
29713;DHT22;16623;53.632;10.016;2022-07-09T14:11:24;20.20;99.90
29713;DHT22;16623;53.632;10.016;2022-07-09T14:13:49;20.30;99.90
29713;DHT22;16623;53.632;10.016;2022-07-09T14:16:17;20.40;99.90
29713;DHT22;16623;53.632;10.016;2022-07-09T14:18:43;20.50;99.90
29713;DHT22;16623;53.632;10.016;2022-07-09T14:21:09;20.60;99.90
29713;DHT22;16623;53.632;10.016;2022-07-09T14:23:34;20.80;99.90
29713;DHT22;16623;53.632;10.016;2022-07-09T14:26:00;20.80;99.90
29713;DHT22;16623;53.632;10.016;2022-07-09T14:28:27;20.80;99.90
29713;DHT22;16623;53.632;10.016;2022-07-09T14:30:52;20.90;99.90
29713;DHT22;16623;53.632;10.016;2022-07-09T14:33:18;20.80;99.90
29713;DHT22;16623;53.632;10.016;2022-07-09T14:35:43;20.80;99.90
29713;DHT22;16623;53.632;10.016;2022-07-09T14:38:09;20.90;99.90
29713;DHT22;16623;53.632;10.016;2022-07-09T14:40:34;20.80;99.90
29713;DHT22;16623;53.632;10.016;2022-07-09T14:43:00;20.80;99.90
29713;DHT22;16623;53.632;10.016;2022-07-09T14:45:25;20.80;99.90
29713;DHT22;16623;53.632;10.016;2022-07-09T14:47:52;20.60;99.90
29713;DHT22;16623;53.632;10.016;2022-07-09T14:50:18;20.40;99.90
29713;DHT22;16623;53.632;10.016;2022-07-09T14:52:44;20.30;99.90
29713;DHT22;16623;53.632;10.016;2022-07-09T14:55:11;20.00;99.90
29713;DHT22;16623;53.632;10.016;2022-07-09T14:57:36;20.20;99.90
29713;DHT22;16623;53.632;10.016;2022-07-09T15:00:02;20.30;99.90
29713;DHT22;16623;53.632;10.016;2022-07-09T15:02:28;20.30;99.90
29713;DHT22;16623;53.632;10.016;2022-07-09T15:04:53;20.30;99.90
29713;DHT22;16623;53.632;10.016;2022-07-09T15:07:19;20.10;99.90